createdAt,value
2018-11-12T10:53:07.580Z,13.50
2018-11-12T11:00:32.850Z,13.60
2018-11-12T11:04:40.287Z,14.20
2018-11-12T11:09:31.134Z,14.40
2018-11-12T11:13:37.429Z,14.60
2018-11-12T11:17:43.800Z,14.60
2018-11-12T11:21:51.011Z,14.60
2018-11-12T11:25:57.535Z,14.50
2018-11-12T11:30:07.310Z,14.70
2018-11-12T11:34:14.054Z,15.00
2018-11-12T11:38:22.286Z,15.20
2018-11-12T11:42:30.006Z,15.30
2018-11-12T11:46:36.743Z,15.60
2018-11-12T11:50:48.855Z,15.60
2018-11-12T11:54:55.453Z,15.70
2018-11-12T11:59:01.892Z,15.60
2018-11-12T12:03:08.286Z,15.50
2018-11-12T12:07:17.451Z,15.60
2018-11-12T12:11:25.561Z,15.70
2018-11-12T12:15:32.347Z,15.80
2018-11-12T12:19:41.768Z,15.90
2018-11-12T12:23:48.324Z,15.80
2018-11-12T12:27:56.081Z,15.50
2018-11-12T12:32:02.800Z,15.40
2018-11-12T12:36:09.283Z,15.20
2018-11-12T12:40:17.176Z,15.10
2018-11-12T12:44:23.787Z,15.10
2018-11-12T12:48:30.426Z,15.10
2018-11-12T12:52:36.822Z,15.10
2018-11-12T12:56:43.350Z,15.10
2018-11-12T13:00:50.172Z,15.10
2018-11-12T13:04:56.485Z,15.00
2018-11-12T13:09:03.761Z,14.80
2018-11-12T13:13:11.465Z,14.60
2018-11-12T13:17:18.215Z,14.50
2018-11-12T13:21:26.151Z,14.40
2018-11-12T13:25:39.394Z,14.40
2018-11-12T13:29:47.785Z,14.30
2018-11-12T13:33:54.062Z,14.30
2018-11-12T13:38:00.659Z,14.40
2018-11-12T13:42:10.622Z,14.30
2018-11-12T13:46:17.192Z,14.30
2018-11-12T13:50:27.335Z,14.20
2018-11-12T13:54:34.026Z,14.10
2018-11-12T13:58:41.040Z,14.00
2018-11-12T14:02:51.650Z,13.90
2018-11-12T14:06:57.820Z,13.80
2018-11-12T14:11:07.933Z,13.80
2018-11-12T14:15:15.716Z,13.70
2018-11-12T14:19:22.156Z,13.60
2018-11-12T14:23:31.053Z,13.50
2018-11-12T14:27:35.221Z,13.50
2018-11-12T14:31:41.516Z,13.30
2018-11-12T14:35:48.800Z,13.30
2018-11-12T14:39:55.013Z,13.40
2018-11-12T14:44:01.773Z,13.40
2018-11-12T14:48:07.871Z,13.40
2018-11-12T14:56:22.490Z,13.30
2018-11-12T15:00:29.169Z,13.30
2018-11-12T15:04:36.998Z,13.20
2018-11-12T15:08:45.353Z,13.10
2018-11-12T15:12:51.815Z,13.00
2018-11-12T15:16:59.053Z,12.80
2018-11-12T15:21:05.194Z,12.80
2018-11-12T15:25:13.790Z,12.80
2018-11-12T15:29:42.054Z,12.70
2018-11-12T15:33:49.023Z,12.70
2018-11-12T15:42:02.968Z,12.50
2018-11-12T15:46:09.285Z,12.40
2018-11-12T15:50:19.436Z,12.30
2018-11-12T15:54:25.595Z,12.30
2018-11-12T15:58:32.065Z,12.30
2018-11-12T16:02:38.399Z,12.20
2018-11-12T16:06:45.094Z,12.10
2018-11-12T16:10:51.190Z,12.10
2018-11-12T16:15:00.202Z,11.90
2018-11-12T16:19:07.006Z,11.80
2018-11-12T16:23:15.282Z,11.70
2018-11-12T16:27:24.541Z,11.70
2018-11-12T16:31:31.235Z,11.60
2018-11-12T16:35:37.653Z,11.40
2018-11-12T16:39:44.569Z,11.30
2018-11-12T16:43:52.442Z,11.30
2018-11-12T16:47:59.454Z,11.20
2018-11-12T16:52:05.719Z,11.20
2018-11-12T16:56:12.384Z,11.10
2018-11-12T17:00:19.516Z,11.10
2018-11-12T17:04:30.193Z,11.10
2018-11-12T17:08:36.681Z,11.10
2018-11-12T17:12:49.208Z,11.00
2018-11-12T17:16:57.143Z,10.90
2018-11-12T17:21:03.850Z,10.90
2018-11-12T17:25:11.541Z,10.80
2018-11-12T17:29:19.418Z,10.80
2018-11-12T17:33:25.916Z,10.80
2018-11-12T17:37:32.531Z,10.80
2018-11-12T17:41:42.771Z,10.70
2018-11-12T17:45:49.998Z,10.70
2018-11-12T17:49:56.843Z,10.60
2018-11-12T17:54:03.737Z,10.60
2018-11-12T17:58:10.970Z,10.50
2018-11-12T18:02:18.666Z,10.50
2018-11-12T18:06:25.147Z,10.50
2018-11-12T18:10:32.121Z,10.40
2018-11-12T18:14:40.203Z,10.40
2018-11-12T18:18:47.328Z,10.30
2018-11-12T18:22:54.498Z,10.30
2018-11-12T18:27:01.200Z,10.30
2018-11-12T18:31:07.667Z,10.20
2018-11-12T18:35:14.115Z,10.30
2018-11-12T18:39:21.527Z,10.20
2018-11-12T18:43:30.013Z,10.30
2018-11-12T18:47:37.755Z,10.20
2018-11-12T18:51:44.732Z,10.20
2018-11-12T18:55:50.935Z,10.10
2018-11-12T18:59:57.885Z,10.10
2018-11-12T19:04:04.483Z,10.10
2018-11-12T19:08:11.381Z,10.20
2018-11-12T19:12:19.578Z,10.10
2018-11-12T19:16:27.897Z,10.00
2018-11-12T19:20:35.150Z,10.00
2018-11-12T19:24:50.676Z,10.00
2018-11-12T19:28:56.980Z,9.90
2018-11-12T19:33:03.802Z,9.80
2018-11-12T19:37:10.226Z,9.80
2018-11-12T19:41:18.561Z,9.80
2018-11-12T19:45:27.033Z,9.90
2018-11-12T19:49:41.624Z,9.90
2018-11-12T19:53:48.232Z,9.90
2018-11-12T20:02:13.763Z,9.70
2018-11-12T20:06:23.167Z,9.70
2018-11-12T20:10:32.875Z,9.50
2018-11-12T20:14:39.551Z,9.40
2018-11-12T20:18:47.112Z,9.30
2018-11-12T20:22:54.002Z,9.20
2018-11-12T20:27:00.516Z,9.10
2018-11-12T20:31:07.360Z,9.10
2018-11-12T20:35:15.271Z,9.20
2018-11-12T20:39:21.946Z,9.00
2018-11-12T20:43:30.721Z,9.00
2018-11-12T20:47:37.342Z,9.00
2018-11-12T20:51:43.685Z,8.90
2018-11-12T20:56:12.723Z,9.00
2018-11-12T21:00:22.313Z,9.00
2018-11-12T21:04:30.324Z,8.90
2018-11-12T21:08:39.373Z,8.80
2018-11-12T21:12:49.931Z,8.80
2018-11-12T21:16:56.345Z,8.80
2018-11-12T21:21:05.008Z,8.70
2018-11-12T21:25:14.126Z,8.90
2018-11-12T21:29:44.167Z,8.80
2018-11-12T21:33:52.278Z,8.90
2018-11-12T21:37:59.717Z,8.80
2018-11-12T21:42:05.844Z,8.80
2018-11-12T21:46:12.360Z,8.80
2018-11-12T21:50:22.455Z,8.70
2018-11-12T21:54:29.109Z,8.60
2018-11-12T22:02:42.978Z,8.60
2018-11-12T22:06:49.667Z,8.60
2018-11-12T22:10:58.310Z,8.60
2018-11-12T22:15:04.877Z,8.60
2018-11-12T22:19:11.673Z,8.60
2018-11-12T22:23:38.527Z,8.60
2018-11-12T22:27:48.956Z,8.60
2018-11-12T22:31:56.935Z,8.60
2018-11-12T22:36:05.170Z,8.60
2018-11-12T22:40:12.854Z,8.50
2018-11-12T22:44:18.774Z,8.40
2018-11-12T22:48:25.211Z,8.40
2018-11-12T22:52:31.778Z,8.30
2018-11-12T23:01:43.115Z,8.30
2018-11-12T23:05:49.402Z,8.40
2018-11-12T23:09:58.103Z,8.30
2018-11-12T23:14:04.669Z,8.30
2018-11-12T23:18:12.038Z,8.30
2018-11-12T23:22:18.346Z,8.30
2018-11-12T23:26:26.191Z,8.30
2018-11-12T23:30:32.810Z,8.20
2018-11-12T23:34:39.488Z,8.30
2018-11-12T23:38:45.659Z,8.30
2018-11-12T23:42:52.143Z,8.30
2018-11-12T23:46:59.408Z,8.30
2018-11-12T23:51:05.917Z,8.20
2018-11-12T23:55:12.499Z,8.20
2018-11-12T23:59:21.930Z,8.20
